Time;durP1;ratioP1;P1;durP2;ratioP2;P2;SDS_P1;SDS_P2;PMS_P1;PMS_P2;Temp;Humidity;BMP_temperature;BMP_pressure;BME280_temperature;BME280_humidity;BME280_pressure;Samples;Min_cycle;Max_cycle;Signal;HPM_P1;HPM_P2
2023/05/15 00:18:16;;;;;;;5.63;4.70;;;15.70;66.50;;;;;;5772067;24;20357;-87
2023/05/15 01:08:46;;;;;;;5.47;4.03;;;15.60;69.60;;;;;;5556381;24;20930;-83
2023/05/15 02:04:57;;;;;;;4.57;3.90;;;15.10;73.50;;;;;;5559616;25;20206;-85
2023/05/15 03:10:48;;;;;;;5.37;4.50;;;14.90;74.80;;;;;;5629351;24;21022;-84
2023/05/15 03:36:09;;;;;;;4.93;4.20;;;14.90;75.30;;;;;;5738178;24;21003;-85
2023/05/15 03:56:20;;;;;;;5.43;4.57;;;15.10;74.40;;;;;;5674888;24;20208;-85
2023/05/15 04:30:50;;;;;;;8.03;4.87;;;15.10;76.80;;;;;;5679459;24;20203;-85
2023/05/15 05:26:21;;;;;;;5.83;4.60;;;15.30;77.20;;;;;;5667852;24;20178;-86
2023/05/15 05:46:49;;;;;;;6.63;4.20;;;15.60;76.60;;;;;;5686003;24;20599;-84
2023/05/15 06:37:30;;;;;;;6.40;5.77;;;15.20;88.50;;;;;;5751586;24;20420;-87
2023/05/15 07:07:53;;;;;;;8.70;7.80;;;13.90;99.90;;;;;;5889786;23;20253;-80
2023/05/15 07:37:39;;;;;;;9.77;8.87;;;13.30;99.90;;;;;;5580060;24;20699;-83
2023/05/15 08:44:05;;;;;;;10.57;9.60;;;13.80;99.90;;;;;;5889866;23;20777;-81
2023/05/15 09:09:12;;;;;;;10.60;9.47;;;13.20;99.90;;;;;;5805441;24;20191;-86
2023/05/15 09:44:33;;;;;;;12.60;11.40;;;13.00;99.90;;;;;;5543249;24;20731;-83
2023/05/15 10:20:11;;;;;;;12.67;11.37;;;13.70;99.90;;;;;;5446029;25;20378;-85
2023/05/15 10:40:28;;;;;;;14.73;11.83;;;13.50;99.90;;;;;;5604420;24;20429;-85
2023/05/15 11:00:58;;;;;;;16.27;13.10;;;13.30;99.90;;;;;;5445828;25;20320;-83
2023/05/15 11:46:27;;;;;;;13.80;12.50;;;12.90;99.90;;;;;;5761438;23;20358;-82
2023/05/15 12:06:57;;;;;;;13.23;11.93;;;13.00;99.90;;;;;;5773374;23;20189;-81
2023/05/15 12:32:15;;;;;;;16.67;14.97;;;12.90;99.90;;;;;;5759442;23;20562;-84
2023/05/15 13:22:45;;;;;;;17.70;15.90;;;13.30;99.90;;;;;;5697549;24;20184;-85
2023/05/15 15:24:42;;;;;;;19.60;17.70;;;14.50;99.90;;;;;;5937561;23;20432;-84
2023/05/15 15:54:53;;;;;;;12.80;11.70;;;16.30;99.90;;;;;;5933541;23;20243;-81
2023/05/15 16:01:53;;;;;;;12.27;11.07;;;16.70;99.90;;;;;;5899485;24;20181;-84
2023/05/15 16:17:33;;;;;;;13.77;12.43;;;15.80;99.90;;;;;;5727376;24;20378;-84
2023/05/15 16:38:04;;;;;;;13.03;10.70;;;15.70;99.90;;;;;;5854177;24;20185;-85
2023/05/15 17:03:26;;;;;;;13.03;11.27;;;15.20;99.90;;;;;;5663427;24;20506;-83
2023/05/15 17:38:16;;;;;;;15.10;13.10;;;14.40;99.90;;;;;;5748574;24;20509;-84
2023/05/15 17:59:15;;;;;;;16.73;15.03;;;14.20;99.90;;;;;;5815678;24;20165;-86
2023/05/15 18:03:37;;;;;;;18.03;16.13;;;14.20;99.90;;;;;;5669340;24;20705;-84
2023/05/15 19:10:12;;;;;;;7.30;6.60;;;13.50;99.90;;;;;;5791350;24;20214;-84
2023/05/15 19:39:58;;;;;;;7.27;6.67;;;13.10;99.90;;;;;;5776195;23;20793;-85
2023/05/15 20:10:28;;;;;;;12.53;11.17;;;13.00;99.90;;;;;;5818509;23;20590;-84
2023/05/15 20:35:46;;;;;;;17.23;15.40;;;12.80;99.90;;;;;;5713727;24;20735;-84
2023/05/15 21:11:55;;;;;;;13.13;11.83;;;12.80;99.90;;;;;;5994975;23;20152;-84
2023/05/15 21:42:05;;;;;;;13.17;10.43;;;12.90;99.90;;;;;;5952836;23;20191;-84
2023/05/15 22:07:39;;;;;;;9.87;8.87;;;12.60;99.90;;;;;;5757201;23;20213;-86
2023/05/15 22:32:52;;;;;;;8.53;7.63;;;12.30;99.90;;;;;;5613340;24;20724;-84
2023/05/15 23:03:27;;;;;;;7.40;6.60;;;12.30;99.90;;;;;;5754311;24;20750;-86
2023/05/15 23:33:47;;;;;;;8.50;7.70;;;11.80;99.90;;;;;;5704312;24;20725;-85
